Time,TemperatureF,DewpointF,PressureIn,WindDirection,WindDirectionDegrees,WindSpeedMPH,WindSpeedGustMPH,Humidity,HourlyPrecipIn,Conditions,Clouds,dailyrainin,SoftwareType,DateUTC
2013-02-05 00:00:00,55.4,52.5,30.01,ESE,112,0.0,0.0,90,0.00,,,0.00,VWS V14.01,2013-02-04 22:00:00,
2013-02-05 00:05:00,55.4,52.5,30.01,ESE,112,0.0,0.0,90,0.00,,,0.00,VWS V14.01,2013-02-04 22:05:00,
2013-02-05 00:10:00,55.4,52.5,30.01,ESE,112,0.0,0.0,90,0.00,,,0.00,VWS V14.01,2013-02-04 22:10:00,
2013-02-05 00:15:00,55.4,52.5,30.01,ESE,112,0.0,0.0,90,0.00,,,0.00,VWS V14.01,2013-02-04 22:15:00,
2013-02-05 00:20:00,55.4,52.5,30.00,ESE,112,0.0,0.0,90,0.00,,,0.00,VWS V14.01,2013-02-04 22:20:00,
2013-02-05 00:25:00,55.4,52.5,30.00,ESE,112,0.0,0.0,90,0.00,,,0.00,VWS V14.01,2013-02-04 22:25:00,
2013-02-05 00:31:00,55.4,52.5,30.00,ESE,112,0.0,0.0,90,0.00,,,0.00,VWS V14.01,2013-02-04 22:31:00,
2013-02-05 00:36:00,55.6,52.7,30.00,ESE,112,0.0,0.0,90,0.00,,,0.00,VWS V14.01,2013-02-04 22:36:00,
2013-02-05 00:41:00,55.6,52.7,30.00,ESE,112,0.0,0.0,90,0.00,,,0.00,VWS V14.01,2013-02-04 22:41:00,
2013-02-05 00:46:00,55.4,52.5,30.00,ESE,112,0.0,0.0,90,0.00,,,0.00,VWS V14.01,2013-02-04 22:46:00,
2013-02-05 00:51:00,55.4,52.5,30.00,ESE,112,0.0,0.0,90,0.00,,,0.00,VWS V14.01,2013-02-04 22:51:00,
2013-02-05 00:56:00,55.4,52.5,30.00,ESE,112,0.0,0.0,90,0.00,,,0.00,VWS V14.01,2013-02-04 22:56:00,
2013-02-05 01:01:00,55.2,52.3,30.00,ESE,112,0.0,0.0,90,0.00,,,0.00,VWS V14.01,2013-02-04 23:01:00,
2013-02-05 01:06:00,55.0,52.1,30.00,ESE,112,0.0,0.0,90,0.00,,,0.00,VWS V14.01,2013-02-04 23:06:00,
2013-02-05 01:11:00,55.0,52.1,30.00,ESE,112,0.0,0.0,90,0.00,,,0.00,VWS V14.01,2013-02-04 23:11:00,
2013-02-05 01:16:00,54.9,52.0,30.00,ESE,112,0.0,0.0,90,0.00,,,0.00,VWS V14.01,2013-02-04 23:16:00,
2013-02-05 01:21:00,54.9,52.0,30.00,ESE,112,0.0,0.0,90,0.00,,,0.00,VWS V14.01,2013-02-04 23:21:00,
2013-02-05 01:26:00,54.7,51.8,30.00,ESE,112,0.0,0.0,90,0.00,,,0.00,VWS V14.01,2013-02-04 23:26:00,
2013-02-05 01:31:00,54.7,52.1,30.00,ESE,112,0.0,0.0,91,0.00,,,0.00,VWS V14.01,2013-02-04 23:31:00,
2013-02-05 01:36:00,54.7,52.1,30.00,ESE,112,0.0,0.0,91,0.00,,,0.00,VWS V14.01,2013-02-04 23:36:00,
2013-02-05 01:41:00,54.7,52.1,30.00,ESE,112,0.0,0.0,91,0.00,,,0.00,VWS V14.01,2013-02-04 23:41:00,
2013-02-05 01:46:00,54.7,52.1,30.00,ESE,112,0.0,0.0,91,0.00,,,0.00,VWS V14.01,2013-02-04 23:46:00,
2013-02-05 01:51:00,54.7,52.1,30.01,ESE,112,0.0,0.0,91,0.00,,,0.00,VWS V14.01,2013-02-04 23:51:00,
2013-02-05 01:56:00,54.7,52.1,30.01,ESE,112,0.0,0.0,91,0.00,,,0.00,VWS V14.01,2013-02-04 23:56:00,
2013-02-05 02:01:00,54.7,52.1,30.01,ESE,112,0.0,0.0,91,0.00,,,0.00,VWS V14.01,2013-02-05 00:01:00,
2013-02-05 02:06:00,54.7,52.1,30.01,ESE,112,0.0,0.0,91,0.00,,,0.00,VWS V14.01,2013-02-05 00:06:00,
2013-02-05 02:12:00,54.7,52.1,30.01,ESE,112,0.0,0.0,91,0.00,,,0.00,VWS V14.01,2013-02-05 00:12:00,
2013-02-05 02:17:00,54.7,52.1,30.01,ESE,112,0.0,0.0,91,0.00,,,0.00,VWS V14.01,2013-02-05 00:17:00,
2013-02-05 02:22:00,54.7,52.1,30.01,ESE,112,0.0,0.0,91,0.00,,,0.00,VWS V14.01,2013-02-05 00:22:00,
2013-02-05 02:27:00,54.7,52.1,30.01,ESE,112,0.0,0.0,91,0.00,,,0.00,VWS V14.01,2013-02-05 00:27:00,
2013-02-05 02:32:00,54.7,52.1,30.01,ESE,112,0.0,0.0,91,0.00,,,0.00,VWS V14.01,2013-02-05 00:32:00,
2013-02-05 02:37:00,54.7,52.1,30.01,ESE,112,0.0,0.0,91,0.00,,,0.00,VWS V14.01,2013-02-05 00:37:00,
2013-02-05 02:42:00,54.7,52.1,30.01,ESE,112,0.0,0.0,91,0.00,,,0.00,VWS V14.01,2013-02-05 00:42:00,
2013-02-05 02:47:00,54.7,52.1,30.01,ESE,112,0.0,0.0,91,0.00,,,0.00,VWS V14.01,2013-02-05 00:47:00,
2013-02-05 02:52:00,54.7,52.1,30.01,ESE,112,0.0,0.0,91,0.00,,,0.00,VWS V14.01,2013-02-05 00:52:00,
2013-02-05 02:57:00,54.7,52.1,30.01,ESE,112,0.0,0.0,91,0.00,,,0.00,VWS V14.01,2013-02-05 00:57:00,
2013-02-05 03:02:00,54.7,52.1,30.01,ESE,112,0.0,0.0,91,0.00,,,0.00,VWS V14.01,2013-02-05 01:02:00,
2013-02-05 03:07:00,54.7,52.1,30.00,ESE,112,0.0,0.0,91,0.00,,,0.00,VWS V14.01,2013-02-05 01:07:00,
2013-02-05 03:12:00,54.7,52.1,30.01,ESE,112,0.0,0.0,91,0.00,,,0.00,VWS V14.01,2013-02-05 01:12:00,
2013-02-05 05:32:00,54.7,52.4,30.00,ENE,68,0.0,0.0,92,0.00,,,0.00,VWS V14.01,2013-02-05 03:32:00,
2013-02-05 05:37:00,54.5,52.2,30.00,ENE,68,0.0,0.0,92,0.00,,,0.00,VWS V14.01,2013-02-05 03:37:00,
2013-02-05 05:42:00,54.5,52.2,30.00,NE,45,0.0,0.0,92,0.00,,,0.00,VWS V14.01,2013-02-05 03:42:00,
2013-02-05 05:47:00,54.5,52.2,30.00,NE,45,0.0,0.0,92,0.00,,,0.00,VWS V14.01,2013-02-05 03:47:00,
2013-02-05 05:52:00,54.5,52.2,30.00,NE,45,0.0,0.0,92,0.00,,,0.00,VWS V14.01,2013-02-05 03:52:00,
2013-02-05 05:57:00,54.5,52.2,30.00,NE,45,0.0,0.0,92,0.00,,,0.00,VWS V14.01,2013-02-05 03:57:00,
2013-02-05 06:02:00,54.5,52.2,30.00,NE,45,0.0,0.0,92,0.00,,,0.00,VWS V14.01,2013-02-05 04:02:00,
2013-02-05 06:07:00,54.3,52.0,30.00,NE,45,0.0,0.0,92,0.00,,,0.00,VWS V14.01,2013-02-05 04:07:00,
2013-02-05 06:12:00,54.1,51.8,30.00,NE,45,0.0,0.0,92,0.00,,,0.00,VWS V14.01,2013-02-05 04:12:00,
2013-02-05 06:17:00,54.1,51.8,29.99,NE,45,0.0,0.0,92,0.00,,,0.00,VWS V14.01,2013-02-05 04:17:00,
2013-02-05 06:22:00,54.1,51.8,29.99,NE,45,0.0,0.0,92,0.00,,,0.00,VWS V14.01,2013-02-05 04:22:00,
2013-02-05 06:27:00,54.0,51.7,29.99,NE,45,0.0,0.0,92,0.00,,,0.00,VWS V14.01,2013-02-05 04:27:00,
2013-02-05 06:32:00,54.0,51.7,30.00,NE,45,0.0,0.0,92,0.00,,,0.00,VWS V14.01,2013-02-05 04:32:00,
2013-02-05 06:37:00,54.0,51.7,30.00,NE,45,0.0,0.0,92,0.00,,,0.00,VWS V14.01,2013-02-05 04:37:00,
2013-02-05 06:42:00,53.8,51.5,30.00,NE,45,0.0,0.0,92,0.00,,,0.00,VWS V14.01,2013-02-05 04:42:00,
2013-02-05 06:47:00,53.8,51.5,30.00,NE,45,0.0,0.0,92,0.00,,,0.00,VWS V14.01,2013-02-05 04:47:00,
2013-02-05 06:52:00,53.8,51.5,30.00,NE,45,0.0,0.0,92,0.00,,,0.00,VWS V14.01,2013-02-05 04:52:00,
2013-02-05 06:57:00,53.8,51.5,30.00,NE,45,0.0,0.0,92,0.00,,,0.00,VWS V14.01,2013-02-05 04:57:00,
2013-02-05 07:00:00,53.8,51.5,29.99,NE,45,0.0,0.0,92,0.00,,,0.00,VWS V14.01,2013-02-05 05:00:00,
2013-02-05 07:01:00,53.8,51.5,30.00,NE,45,0.0,0.0,92,0.00,,,0.00,VWS V14.01,2013-02-05 05:01:00,
2013-02-05 07:06:00,54.0,51.7,30.00,NE,45,0.0,0.0,92,0.00,,,0.00,VWS V14.01,2013-02-05 05:06:00,
2013-02-05 07:11:00,54.0,51.7,30.00,NE,45,0.0,0.0,92,0.00,,,0.00,VWS V14.01,2013-02-05 05:11:00,
2013-02-05 07:16:00,54.0,51.7,30.00,NE,45,0.0,0.0,92,0.00,,,0.00,VWS V14.01,2013-02-05 05:16:00,
2013-02-05 07:21:00,53.8,51.5,30.00,NE,45,0.0,0.0,92,0.00,,,0.00,VWS V14.01,2013-02-05 05:21:00,
2013-02-05 07:26:00,53.8,51.5,30.00,NE,45,0.0,0.0,92,0.00,,,0.00,VWS V14.01,2013-02-05 05:26:00,
2013-02-05 07:31:00,53.8,51.5,30.00,NE,45,0.0,0.0,92,0.00,,,0.00,VWS V14.01,2013-02-05 05:31:00,
2013-02-05 07:36:00,53.8,51.5,30.00,NE,45,0.0,0.0,92,0.00,,,0.00,VWS V14.01,2013-02-05 05:36:00,
2013-02-05 07:41:00,53.6,51.3,30.01,NE,45,0.0,0.0,92,0.00,,,0.00,VWS V14.01,2013-02-05 05:41:00,
2013-02-05 07:46:00,53.6,51.3,30.00,NE,45,0.0,0.0,92,0.00,,,0.00,VWS V14.01,2013-02-05 05:46:00,
2013-02-05 07:51:00,53.6,51.3,30.00,NE,45,0.0,0.0,92,0.00,,,0.00,VWS V14.01,2013-02-05 05:51:00,
2013-02-05 07:56:00,53.4,51.4,30.00,NE,45,0.0,0.0,93,0.00,,,0.00,VWS V14.01,2013-02-05 05:56:00,
2013-02-05 08:01:00,53.6,51.6,30.00,NE,45,0.0,0.0,93,0.00,,,0.00,VWS V14.01,2013-02-05 06:01:00,
2013-02-05 08:06:00,53.6,51.6,30.00,NE,45,0.0,0.0,93,0.00,,,0.00,VWS V14.01,2013-02-05 06:06:00,
2013-02-05 08:11:00,53.8,51.8,30.00,NE,45,0.6,0.6,93,0.00,,,0.00,VWS V14.01,2013-02-05 06:11:00,
2013-02-05 08:16:00,53.8,51.8,30.01,NE,45,0.0,0.0,93,0.00,,,0.00,VWS V14.01,2013-02-05 06:16:00,
2013-02-05 08:21:00,53.8,51.8,30.01,NE,45,0.0,0.0,93,0.00,,,0.00,VWS V14.01,2013-02-05 06:21:00,
2013-02-05 08:26:00,54.0,51.7,30.01,NE,45,0.0,0.0,92,0.00,,,0.00,VWS V14.01,2013-02-05 06:26:00,
2013-02-05 08:31:00,54.1,51.8,30.01,NE,45,0.0,0.0,92,0.00,,,0.00,VWS V14.01,2013-02-05 06:31:00,
2013-02-05 08:36:00,54.0,51.7,30.01,NE,45,0.0,0.0,92,0.00,,,0.00,VWS V14.01,2013-02-05 06:36:00,
2013-02-05 08:42:00,54.5,52.2,30.01,NE,45,0.0,0.0,92,0.00,,,0.00,VWS V14.01,2013-02-05 06:42:00,
2013-02-05 08:47:00,54.5,52.2,30.01,NE,45,0.0,0.0,92,0.00,,,0.00,VWS V14.01,2013-02-05 06:47:00,
2013-02-05 08:52:00,54.7,52.4,30.02,NE,45,0.0,0.0,92,0.00,,,0.00,VWS V14.01,2013-02-05 06:52:00,
2013-02-05 08:57:00,54.9,52.6,30.02,NE,45,0.0,0.0,92,0.00,,,0.00,VWS V14.01,2013-02-05 06:57:00,
2013-02-05 09:02:00,55.0,52.7,30.02,NE,45,0.0,0.0,92,0.00,,,0.00,VWS V14.01,2013-02-05 07:02:00,
2013-02-05 09:07:00,55.4,53.4,30.02,NE,45,0.0,0.0,93,0.00,,,0.00,VWS V14.01,2013-02-05 07:07:00,
2013-02-05 09:12:00,55.6,53.3,30.02,NE,45,0.0,0.0,92,0.00,,,0.00,VWS V14.01,2013-02-05 07:12:00,
2013-02-05 09:17:00,55.9,52.4,30.01,NE,45,0.0,0.0,88,0.00,,,0.00,VWS V14.01,2013-02-05 07:17:00,
2013-02-05 09:22:00,56.1,51.0,30.01,North,0,1.1,1.1,83,0.00,,,0.00,VWS V14.01,2013-02-05 07:22:00,
2013-02-05 09:27:00,56.3,51.2,30.01,NNE,22,0.0,3.8,83,0.00,,,0.00,VWS V14.01,2013-02-05 07:27:00,
2013-02-05 09:32:00,56.8,51.3,30.01,NNE,22,0.0,0.0,82,0.00,,,0.00,VWS V14.01,2013-02-05 07:32:00,
2013-02-05 09:37:00,57.0,50.9,30.01,NNE,22,0.0,0.0,80,0.00,,,0.00,VWS V14.01,2013-02-05 07:37:00,
2013-02-05 09:42:00,57.2,50.4,30.02,NNE,22,0.0,0.0,78,0.00,,,0.00,VWS V14.01,2013-02-05 07:42:00,
2013-02-05 09:47:00,57.2,49.7,30.02,NNE,22,1.3,2.2,76,0.00,,,0.00,VWS V14.01,2013-02-05 07:47:00,
2013-02-05 09:52:00,57.2,50.0,30.01,NNE,22,2.0,2.0,77,0.00,,,0.00,VWS V14.01,2013-02-05 07:52:00,
2013-02-05 09:57:00,57.4,49.9,30.01,North,0,0.0,0.2,76,0.00,,,0.00,VWS V14.01,2013-02-05 07:57:00,
2013-02-05 10:02:00,57.7,50.2,30.01,NNE,22,0.0,0.0,76,0.00,,,0.00,VWS V14.01,2013-02-05 08:02:00,
2013-02-05 10:07:00,58.6,49.6,30.01,NNE,22,11.1,11.1,72,0.00,,,0.00,VWS V14.01,2013-02-05 08:07:00,
2013-02-05 10:12:00,58.6,49.6,30.01,NE,45,0.0,0.0,72,0.00,,,0.00,VWS V14.01,2013-02-05 08:12:00,
2013-02-05 10:17:00,59.4,49.6,30.01,NNE,22,5.1,7.6,70,0.00,,,0.00,VWS V14.01,2013-02-05 08:17:00,
2013-02-05 10:22:00,59.5,49.3,30.01,NE,45,0.0,0.0,69,0.00,,,0.00,VWS V14.01,2013-02-05 08:22:00,
2013-02-05 10:27:00,60.1,49.5,30.01,NE,45,0.0,0.0,68,0.00,,,0.00,VWS V14.01,2013-02-05 08:27:00,
2013-02-05 10:33:00,59.9,48.5,30.01,NNE,22,7.1,10.0,66,0.00,,,0.00,VWS V14.01,2013-02-05 08:33:00,
2013-02-05 10:38:00,59.5,48.1,30.01,NE,45,8.0,9.8,66,0.00,,,0.00,VWS V14.01,2013-02-05 08:38:00,
2013-02-05 10:43:00,59.5,47.7,30.01,NNE,22,7.1,12.5,65,0.00,,,0.00,VWS V14.01,2013-02-05 08:43:00,
2013-02-05 10:48:00,59.5,47.7,30.01,NNE,22,1.1,6.0,65,0.00,,,0.00,VWS V14.01,2013-02-05 08:48:00,
2013-02-05 10:53:00,59.9,48.1,30.01,NNE,22,1.1,1.1,65,0.00,,,0.00,VWS V14.01,2013-02-05 08:53:00,
2013-02-05 10:58:00,59.7,47.9,30.01,NE,45,11.1,11.1,65,0.00,,,0.00,VWS V14.01,2013-02-05 08:58:00,
2013-02-05 11:03:00,59.4,48.0,30.01,NE,45,6.7,6.9,66,0.00,,,0.00,VWS V14.01,2013-02-05 09:03:00,
2013-02-05 11:08:00,59.4,48.4,30.01,NE,45,2.2,4.0,67,0.00,,,0.00,VWS V14.01,2013-02-05 09:08:00,
2013-02-05 11:13:00,59.7,47.9,30.01,NNE,22,5.1,9.3,65,0.00,,,0.00,VWS V14.01,2013-02-05 09:13:00,
2013-02-05 11:18:00,60.3,48.9,30.01,NE,45,0.0,0.6,66,0.00,,,0.00,VWS V14.01,2013-02-05 09:18:00,
2013-02-05 11:23:00,59.7,47.9,30.01,NE,45,8.0,9.8,65,0.00,,,0.00,VWS V14.01,2013-02-05 09:23:00,
2013-02-05 11:28:00,59.5,48.1,30.00,NE,45,2.4,2.4,66,0.00,,,0.00,VWS V14.01,2013-02-05 09:28:00,
2013-02-05 11:33:00,59.9,48.5,30.00,North,0,0.0,0.0,66,0.00,,,0.00,VWS V14.01,2013-02-05 09:33:00,
2013-02-05 11:38:00,59.9,48.1,30.00,ENE,68,1.1,1.1,65,0.00,,,0.00,VWS V14.01,2013-02-05 09:38:00,
2013-02-05 11:43:00,60.3,48.5,30.00,NNW,338,8.0,8.0,65,0.00,,,0.00,VWS V14.01,2013-02-05 09:43:00,
2013-02-05 11:48:00,60.3,48.0,30.00,NNE,22,2.2,2.2,64,0.00,,,0.00,VWS V14.01,2013-02-05 09:48:00,
2013-02-05 11:53:00,60.1,47.4,30.00,NE,45,0.0,0.0,63,0.00,,,0.00,VWS V14.01,2013-02-05 09:53:00,
2013-02-05 11:58:00,60.3,47.6,29.99,NNE,22,7.8,7.8,63,0.00,,,0.00,VWS V14.01,2013-02-05 09:58:00,
2013-02-05 12:03:00,60.8,48.1,29.99,NNE,22,7.1,7.1,63,0.00,,,0.00,VWS V14.01,2013-02-05 10:03:00,
2013-02-05 12:08:00,60.4,47.3,29.99,NE,45,6.7,8.0,62,0.00,,,0.00,VWS V14.01,2013-02-05 10:08:00,
2013-02-05 12:13:00,60.4,47.7,29.99,NE,45,6.7,7.6,63,0.00,,,0.00,VWS V14.01,2013-02-05 10:13:00,
2013-02-05 12:19:00,60.3,47.6,29.99,NNE,22,0.0,0.0,63,0.00,,,0.00,VWS V14.01,2013-02-05 10:19:00,
2013-02-05 12:24:00,60.8,48.5,29.98,ENE,68,9.1,9.1,64,0.00,,,0.00,VWS V14.01,2013-02-05 10:24:00,
2013-02-05 12:29:00,61.2,48.0,29.98,NNE,22,10.5,10.5,62,0.00,,,0.00,VWS V14.01,2013-02-05 10:29:00,
2013-02-05 12:34:00,61.0,47.9,29.98,NE,45,6.7,6.7,62,0.00,,,0.00,VWS V14.01,2013-02-05 10:34:00,
2013-02-05 12:39:00,61.3,48.2,29.98,ENE,68,7.1,7.1,62,0.00,,,0.00,VWS V14.01,2013-02-05 10:39:00,
2013-02-05 12:44:00,61.3,48.2,29.98,NE,45,0.0,7.3,62,0.00,,,0.00,VWS V14.01,2013-02-05 10:44:00,
2013-02-05 12:49:00,61.9,48.7,29.97,ESE,112,5.1,7.6,62,0.00,,,0.00,VWS V14.01,2013-02-05 10:49:00,
2013-02-05 12:54:00,61.7,48.1,29.97,NE,45,5.1,6.2,61,0.00,,,0.00,VWS V14.01,2013-02-05 10:54:00,
2013-02-05 12:59:00,61.2,48.0,29.97,ENE,68,4.2,4.2,62,0.00,,,0.00,VWS V14.01,2013-02-05 10:59:00,
2013-02-05 13:04:00,60.6,47.9,29.96,NNE,22,9.8,9.8,63,0.00,,,0.00,VWS V14.01,2013-02-05 11:04:00,
2013-02-05 13:09:00,60.4,47.7,29.96,NNE,22,0.0,4.4,63,0.00,,,0.00,VWS V14.01,2013-02-05 11:09:00,
2013-02-05 13:14:00,60.6,47.9,29.96,NE,45,2.4,2.4,63,0.00,,,0.00,VWS V14.01,2013-02-05 11:14:00,
2013-02-05 13:19:00,60.8,47.7,29.96,NE,45,7.6,7.6,62,0.00,,,0.00,VWS V14.01,2013-02-05 11:19:00,
2013-02-05 13:24:00,60.8,47.2,29.96,NE,45,5.3,7.6,61,0.00,,,0.00,VWS V14.01,2013-02-05 11:24:00,
2013-02-05 13:29:00,60.8,48.1,29.95,NE,45,3.5,3.5,63,0.00,,,0.00,VWS V14.01,2013-02-05 11:29:00,
2013-02-05 13:34:00,61.3,47.7,29.95,NNE,22,0.0,0.0,61,0.00,,,0.00,VWS V14.01,2013-02-05 11:34:00,
2013-02-05 13:39:00,61.5,47.9,29.94,NNE,22,6.7,6.7,61,0.00,,,0.00,VWS V14.01,2013-02-05 11:39:00,
2013-02-05 13:44:00,61.3,47.3,29.94,East,90,6.4,8.0,60,0.00,,,0.00,VWS V14.01,2013-02-05 11:44:00,
2013-02-05 13:49:00,61.3,47.3,29.94,NNE,22,5.8,7.6,60,0.00,,,0.00,VWS V14.01,2013-02-05 11:49:00,
2013-02-05 13:54:00,61.7,47.7,29.94,NNE,22,4.0,4.0,60,0.00,,,0.00,VWS V14.01,2013-02-05 11:54:00,
2013-02-05 14:00:00,61.7,46.8,29.94,NE,45,3.8,6.4,58,0.00,,,0.00,VWS V14.01,2013-02-05 12:00:00,
2013-02-05 14:05:00,62.1,47.6,29.93,NE,45,3.1,6.0,59,0.00,,,0.00,VWS V14.01,2013-02-05 12:05:00,
2013-02-05 14:10:00,61.9,46.9,29.93,NE,45,6.7,7.3,58,0.00,,,0.00,VWS V14.01,2013-02-05 12:10:00,
2013-02-05 14:15:00,61.9,46.9,29.93,North,0,7.8,8.0,58,0.00,,,0.00,VWS V14.01,2013-02-05 12:15:00,
2013-02-05 14:20:00,61.9,46.0,29.93,NNE,22,5.8,5.8,56,0.00,,,0.00,VWS V14.01,2013-02-05 12:20:00,
2013-02-05 14:25:00,61.9,46.5,29.92,North,0,7.3,7.3,57,0.00,,,0.00,VWS V14.01,2013-02-05 12:25:00,
2013-02-05 14:30:00,61.9,46.0,29.92,NNE,22,7.3,7.3,56,0.00,,,0.00,VWS V14.01,2013-02-05 12:30:00,
2013-02-05 14:35:00,61.9,46.0,29.92,NE,45,0.0,0.0,56,0.00,,,0.00,VWS V14.01,2013-02-05 12:35:00,
2013-02-05 14:40:00,62.2,46.3,29.92,NNE,22,7.6,7.6,56,0.00,,,0.00,VWS V14.01,2013-02-05 12:40:00,
2013-02-05 14:45:00,61.9,46.5,29.92,ENE,68,2.0,4.6,57,0.00,,,0.00,VWS V14.01,2013-02-05 12:45:00,
2013-02-05 14:50:00,61.9,46.5,29.92,NNE,22,3.1,6.0,57,0.00,,,0.00,VWS V14.01,2013-02-05 12:50:00,
2013-02-05 14:55:00,61.7,46.3,29.92,ENE,68,9.6,9.6,57,0.00,,,0.00,VWS V14.01,2013-02-05 12:55:00,
2013-02-05 15:00:00,61.5,46.1,29.92,ENE,68,11.8,11.8,57,0.00,,,0.00,VWS V14.01,2013-02-05 13:00:00,
2013-02-05 15:05:00,61.3,46.4,29.92,ENE,68,4.6,7.6,58,0.00,,,0.00,VWS V14.01,2013-02-05 13:05:00,
2013-02-05 15:10:00,61.0,46.5,29.92,ENE,68,7.3,7.3,59,0.00,,,0.00,VWS V14.01,2013-02-05 13:10:00,
2013-02-05 15:15:00,60.8,46.8,29.92,East,90,6.7,7.3,60,0.00,,,0.00,VWS V14.01,2013-02-05 13:15:00,
2013-02-05 15:20:00,60.8,46.8,29.92,ESE,112,7.8,10.9,60,0.00,,,0.00,VWS V14.01,2013-02-05 13:20:00,
2013-02-05 15:25:00,60.8,47.2,29.92,ENE,68,4.4,7.3,61,0.00,,,0.00,VWS V14.01,2013-02-05 13:25:00,
2013-02-05 15:31:00,60.8,46.8,29.92,NNE,22,6.7,9.8,60,0.00,,,0.00,VWS V14.01,2013-02-05 13:31:00,
2013-02-05 15:36:00,60.8,46.8,29.92,NE,45,4.2,4.2,60,0.00,,,0.00,VWS V14.01,2013-02-05 13:36:00,
2013-02-05 15:41:00,60.8,47.2,29.92,ENE,68,0.4,0.4,61,0.00,,,0.00,VWS V14.01,2013-02-05 13:41:00,
2013-02-05 15:46:00,60.8,47.2,29.92,NE,45,4.2,4.2,61,0.00,,,0.00,VWS V14.01,2013-02-05 13:46:00,
2013-02-05 15:51:00,60.8,46.8,29.92,NE,45,8.0,8.0,60,0.00,,,0.00,VWS V14.01,2013-02-05 13:51:00,
2013-02-05 15:56:00,60.4,46.9,29.92,NE,45,0.0,3.3,61,0.00,,,0.00,VWS V14.01,2013-02-05 13:56:00,
2013-02-05 16:01:00,60.1,46.6,29.92,NE,45,0.0,0.0,61,0.00,,,0.00,VWS V14.01,2013-02-05 14:01:00,
2013-02-05 16:06:00,59.5,46.0,29.91,ENE,68,0.0,0.0,61,0.00,,,0.00,VWS V14.01,2013-02-05 14:06:00,
2013-02-05 16:11:00,59.4,46.3,29.91,ENE,68,5.3,5.3,62,0.00,,,0.00,VWS V14.01,2013-02-05 14:11:00,
2013-02-05 16:16:00,59.4,47.2,29.91,NNE,22,0.0,4.4,64,0.00,,,0.00,VWS V14.01,2013-02-05 14:16:00,
2013-02-05 16:21:00,59.4,47.2,29.92,East,90,7.6,7.6,64,0.00,,,0.00,VWS V14.01,2013-02-05 14:21:00,
2013-02-05 16:26:00,59.0,47.2,29.91,NE,45,4.0,4.0,65,0.00,,,0.00,VWS V14.01,2013-02-05 14:26:00,
2013-02-05 16:31:00,59.0,47.2,29.91,East,90,4.9,4.9,65,0.00,,,0.00,VWS V14.01,2013-02-05 14:31:00,
2013-02-05 16:36:00,58.6,47.2,29.91,NE,45,0.0,0.0,66,0.00,,,0.00,VWS V14.01,2013-02-05 14:36:00,
2013-02-05 16:41:00,58.6,47.2,29.91,ESE,112,3.1,3.1,66,0.00,,,0.00,VWS V14.01,2013-02-05 14:41:00,
2013-02-05 16:46:00,58.5,47.2,29.91,NE,45,0.0,0.0,66,0.00,,,0.00,VWS V14.01,2013-02-05 14:46:00,
2013-02-05 16:51:00,58.1,46.8,29.92,NE,45,2.0,3.3,66,0.00,,,0.00,VWS V14.01,2013-02-05 14:51:00,
2013-02-05 16:56:00,58.1,47.2,29.92,ENE,68,3.3,10.5,67,0.00,,,0.00,VWS V14.01,2013-02-05 14:56:00,
2013-02-05 17:01:00,57.7,46.8,29.92,East,90,0.0,0.0,67,0.00,,,0.00,VWS V14.01,2013-02-05 15:01:00,
2013-02-05 17:07:00,57.6,47.1,29.92,East,90,0.0,0.0,68,0.00,,,0.00,VWS V14.01,2013-02-05 15:07:00,
2013-02-05 17:12:00,57.4,47.3,29.92,East,90,6.0,6.0,69,0.00,,,0.00,VWS V14.01,2013-02-05 15:12:00,
2013-02-05 17:17:00,57.2,47.1,29.92,ENE,68,8.7,8.7,69,0.00,,,0.00,VWS V14.01,2013-02-05 15:17:00,
2013-02-05 17:22:00,56.8,47.1,29.91,ESE,112,0.0,2.6,70,0.00,,,0.00,VWS V14.01,2013-02-05 15:22:00,
2013-02-05 17:27:00,56.7,47.0,29.91,ESE,112,0.0,0.0,70,0.00,,,0.00,VWS V14.01,2013-02-05 15:27:00,
2013-02-05 17:32:00,56.5,46.8,29.91,NE,45,0.0,0.0,70,0.00,,,0.00,VWS V14.01,2013-02-05 15:32:00,
2013-02-05 17:37:00,56.3,47.0,29.91,NE,45,0.0,0.0,71,0.00,,,0.00,VWS V14.01,2013-02-05 15:37:00,
2013-02-05 17:42:00,56.1,46.8,29.91,ESE,112,0.0,0.0,71,0.00,,,0.00,VWS V14.01,2013-02-05 15:42:00,
2013-02-05 17:47:00,55.9,47.0,29.91,ESE,112,0.0,0.0,72,0.00,,,0.00,VWS V14.01,2013-02-05 15:47:00,
2013-02-05 17:52:00,55.9,47.0,29.91,ESE,112,0.0,0.0,72,0.00,,,0.00,VWS V14.01,2013-02-05 15:52:00,
2013-02-05 17:57:00,55.6,46.7,29.91,ESE,112,0.0,0.0,72,0.00,,,0.00,VWS V14.01,2013-02-05 15:57:00,
2013-02-05 18:02:00,55.4,46.5,29.91,ESE,112,0.0,0.0,72,0.00,,,0.00,VWS V14.01,2013-02-05 16:02:00,
2013-02-05 18:07:00,55.4,46.9,29.91,ESE,112,0.0,0.0,73,0.00,,,0.00,VWS V14.01,2013-02-05 16:07:00,
2013-02-05 18:12:00,55.4,47.2,29.91,South,180,0.0,0.0,74,0.00,,,0.00,VWS V14.01,2013-02-05 16:12:00,
2013-02-05 18:17:00,55.0,46.8,29.91,South,180,0.0,0.0,74,0.00,,,0.00,VWS V14.01,2013-02-05 16:17:00,
2013-02-05 18:22:00,54.9,46.7,29.91,South,180,0.0,0.0,74,0.00,,,0.00,VWS V14.01,2013-02-05 16:22:00,
2013-02-05 18:27:00,54.7,46.5,29.91,South,180,0.0,0.0,74,0.00,,,0.00,VWS V14.01,2013-02-05 16:27:00,
2013-02-05 18:32:00,54.7,46.5,29.91,South,180,0.0,0.0,74,0.00,,,0.00,VWS V14.01,2013-02-05 16:32:00,
2013-02-05 18:38:00,54.5,46.4,29.91,South,180,0.0,0.0,74,0.00,,,0.00,VWS V14.01,2013-02-05 16:38:00,
2013-02-05 18:43:00,54.5,46.4,29.91,South,180,0.0,0.0,74,0.00,,,0.00,VWS V14.01,2013-02-05 16:43:00,
2013-02-05 18:48:00,54.5,46.4,29.91,South,180,0.0,0.0,74,0.00,,,0.00,VWS V14.01,2013-02-05 16:48:00,
2013-02-05 18:53:00,54.3,46.2,29.91,South,180,0.0,0.0,74,0.00,,,0.00,VWS V14.01,2013-02-05 16:53:00,
2013-02-05 18:58:00,54.1,46.3,29.91,South,180,0.0,0.0,75,0.00,,,0.00,VWS V14.01,2013-02-05 16:58:00,
2013-02-05 19:03:00,53.8,46.0,29.91,South,180,0.0,0.0,75,0.00,,,0.00,VWS V14.01,2013-02-05 17:03:00,
2013-02-05 19:08:00,53.6,45.8,29.91,South,180,0.0,0.0,75,0.00,,,0.00,VWS V14.01,2013-02-05 17:08:00,
2013-02-05 19:13:00,53.1,45.7,29.91,South,180,2.9,2.9,76,0.00,,,0.00,VWS V14.01,2013-02-05 17:13:00,
2013-02-05 19:18:00,52.9,45.5,29.91,South,180,0.0,0.0,76,0.00,,,0.00,VWS V14.01,2013-02-05 17:18:00,
2013-02-05 19:23:00,52.7,45.3,29.91,South,180,0.0,0.0,76,0.00,,,0.00,VWS V14.01,2013-02-05 17:23:00,
2013-02-05 19:28:00,52.5,45.1,29.91,South,180,0.0,0.0,76,0.00,,,0.00,VWS V14.01,2013-02-05 17:28:00,
2013-02-05 19:33:00,52.7,45.7,29.90,South,180,0.0,0.0,77,0.00,,,0.00,VWS V14.01,2013-02-05 17:33:00,
2013-02-05 19:38:00,52.5,45.5,29.90,South,180,0.0,0.0,77,0.00,,,0.00,VWS V14.01,2013-02-05 17:38:00,
2013-02-05 19:43:00,52.5,45.5,29.90,South,180,0.0,0.0,77,0.00,,,0.00,VWS V14.01,2013-02-05 17:43:00,
2013-02-05 19:48:00,52.3,45.3,29.90,South,180,0.0,0.0,77,0.00,,,0.00,VWS V14.01,2013-02-05 17:48:00,
2013-02-05 19:54:00,52.3,45.3,29.90,SSE,158,4.2,4.2,77,0.00,,,0.00,VWS V14.01,2013-02-05 17:54:00,
2013-02-05 19:59:00,52.0,45.0,29.90,SSE,158,2.9,2.9,77,0.00,,,0.00,VWS V14.01,2013-02-05 17:59:00,
2013-02-05 20:04:00,51.8,45.1,29.90,SSE,158,2.6,2.6,78,0.00,,,0.00,VWS V14.01,2013-02-05 18:04:00,
2013-02-05 20:09:00,51.8,45.1,29.90,SSE,158,0.0,0.0,78,0.00,,,0.00,VWS V14.01,2013-02-05 18:09:00,
2013-02-05 20:14:00,51.8,45.5,29.90,SSE,158,0.0,0.0,79,0.00,,,0.00,VWS V14.01,2013-02-05 18:14:00,
2013-02-05 20:19:00,51.8,45.5,29.90,SSE,158,0.0,0.0,79,0.00,,,0.00,VWS V14.01,2013-02-05 18:19:00,
2013-02-05 20:24:00,51.8,45.5,29.90,SSE,158,0.0,0.0,79,0.00,,,0.00,VWS V14.01,2013-02-05 18:24:00,
2013-02-05 20:29:00,51.8,45.5,29.90,South,180,0.4,0.4,79,0.00,,,0.00,VWS V14.01,2013-02-05 18:29:00,
2013-02-05 20:34:00,51.8,45.5,29.90,South,180,2.6,2.6,79,0.00,,,0.00,VWS V14.01,2013-02-05 18:34:00,
2013-02-05 20:39:00,51.8,45.5,29.89,South,180,0.0,0.0,79,0.00,,,0.00,VWS V14.01,2013-02-05 18:39:00,
2013-02-05 20:44:00,51.8,45.5,29.89,South,180,0.0,0.0,79,0.00,,,0.00,VWS V14.01,2013-02-05 18:44:00,
2013-02-05 20:49:00,52.0,45.7,29.90,South,180,0.0,0.0,79,0.00,,,0.00,VWS V14.01,2013-02-05 18:49:00,
2013-02-05 20:54:00,51.8,45.5,29.90,South,180,0.0,3.1,79,0.00,,,0.00,VWS V14.01,2013-02-05 18:54:00,
2013-02-05 20:59:00,51.4,45.1,29.90,South,180,0.0,0.0,79,0.00,,,0.00,VWS V14.01,2013-02-05 18:59:00,
2013-02-05 21:04:00,51.3,45.0,29.89,South,180,0.6,0.6,79,0.00,,,0.00,VWS V14.01,2013-02-05 19:04:00,
2013-02-05 21:09:00,51.1,44.8,29.90,South,180,2.0,4.0,79,0.00,,,0.00,VWS V14.01,2013-02-05 19:09:00,
2013-02-05 21:15:00,51.1,45.1,29.89,South,180,3.3,3.3,80,0.00,,,0.00,VWS V14.01,2013-02-05 19:15:00,
2013-02-05 21:20:00,51.1,45.1,29.89,South,180,2.6,2.6,80,0.00,,,0.00,VWS V14.01,2013-02-05 19:20:00,
2013-02-05 21:25:00,50.9,44.9,29.89,South,180,2.0,2.0,80,0.00,,,0.00,VWS V14.01,2013-02-05 19:25:00,
2013-02-05 21:30:00,50.9,44.9,29.89,South,180,3.5,3.5,80,0.00,,,0.00,VWS V14.01,2013-02-05 19:30:00,
2013-02-05 21:35:00,50.9,45.2,29.89,South,180,4.9,4.9,81,0.00,,,0.00,VWS V14.01,2013-02-05 19:35:00,
2013-02-05 21:40:00,50.9,45.2,29.89,South,180,4.4,4.4,81,0.00,,,0.00,VWS V14.01,2013-02-05 19:40:00,
2013-02-05 21:45:00,50.7,45.0,29.89,South,180,5.1,5.1,81,0.00,,,0.00,VWS V14.01,2013-02-05 19:45:00,
2013-02-05 21:50:00,50.5,44.9,29.89,South,180,2.9,2.9,81,0.00,,,0.00,VWS V14.01,2013-02-05 19:50:00,
2013-02-05 21:55:00,50.5,44.9,29.89,South,180,4.0,4.0,81,0.00,,,0.00,VWS V14.01,2013-02-05 19:55:00,
2013-02-05 22:00:00,50.2,44.6,29.89,South,180,3.3,3.3,81,0.00,,,0.00,VWS V14.01,2013-02-05 20:00:00,
2013-02-05 22:05:00,50.2,44.9,29.89,South,180,4.2,4.6,82,0.00,,,0.00,VWS V14.01,2013-02-05 20:05:00,
2013-02-05 22:11:00,50.2,44.9,29.89,South,180,2.4,4.4,82,0.00,,,0.00,VWS V14.01,2013-02-05 20:11:00,
2013-02-05 22:16:00,50.4,45.1,29.89,South,180,4.2,4.2,82,0.00,,,0.00,VWS V14.01,2013-02-05 20:16:00,
2013-02-05 22:21:00,50.5,45.2,29.89,South,180,3.8,4.4,82,0.00,,,0.00,VWS V14.01,2013-02-05 20:21:00,
2013-02-05 22:26:00,50.2,44.9,29.89,South,180,3.8,3.8,82,0.00,,,0.00,VWS V14.01,2013-02-05 20:26:00,
2013-02-05 22:31:00,50.2,44.9,29.88,South,180,4.6,4.6,82,0.00,,,0.00,VWS V14.01,2013-02-05 20:31:00,
2013-02-05 22:36:00,50.2,44.9,29.88,South,180,4.2,4.2,82,0.00,,,0.00,VWS V14.01,2013-02-05 20:36:00,
2013-02-05 22:41:00,50.2,44.9,29.88,South,180,4.2,5.5,82,0.00,,,0.00,VWS V14.01,2013-02-05 20:41:00,
2013-02-05 22:46:00,50.2,44.9,29.88,South,180,5.1,5.1,82,0.00,,,0.00,VWS V14.01,2013-02-05 20:46:00,
2013-02-05 22:51:00,50.2,44.9,29.88,South,180,3.8,4.4,82,0.00,,,0.00,VWS V14.01,2013-02-05 20:51:00,
2013-02-05 22:56:00,50.2,44.9,29.88,SSW,202,4.9,4.9,82,0.00,,,0.00,VWS V14.01,2013-02-05 20:56:00,
2013-02-05 23:01:00,50.2,44.9,29.88,SSW,202,4.6,4.6,82,0.00,,,0.00,VWS V14.01,2013-02-05 21:01:00,
2013-02-05 23:06:00,50.2,44.9,29.88,South,180,4.2,4.2,82,0.00,,,0.00,VWS V14.01,2013-02-05 21:06:00,
2013-02-05 23:11:00,50.4,44.8,29.87,South,180,6.4,6.4,81,0.00,,,0.00,VWS V14.01,2013-02-05 21:11:00,
2013-02-05 23:16:00,50.4,44.8,29.87,South,180,2.9,2.9,81,0.00,,,0.00,VWS V14.01,2013-02-05 21:16:00,
2013-02-05 23:21:00,50.4,44.8,29.87,South,180,3.3,3.3,81,0.00,,,0.00,VWS V14.01,2013-02-05 21:21:00,
2013-02-05 23:26:00,50.5,44.9,29.87,SSW,202,2.2,3.8,81,0.00,,,0.00,VWS V14.01,2013-02-05 21:26:00,
2013-02-05 23:31:00,50.5,44.5,29.87,South,180,3.8,3.8,80,0.00,,,0.00,VWS V14.01,2013-02-05 21:31:00,
2013-02-05 23:37:00,50.0,44.0,29.87,SSE,158,2.4,5.3,80,0.00,,,0.00,VWS V14.01,2013-02-05 21:37:00,
2013-02-05 23:42:00,50.0,44.0,29.87,SSE,158,3.3,3.3,80,0.00,,,0.00,VWS V14.01,2013-02-05 21:42:00,
2013-02-05 23:47:00,49.8,43.8,29.87,SSE,158,0.0,0.0,80,0.00,,,0.00,VWS V14.01,2013-02-05 21:47:00,
2013-02-05 23:52:00,49.6,44.0,29.87,SSE,158,0.0,0.0,81,0.00,,,0.00,VWS V14.01,2013-02-05 21:52:00,
2013-02-05 23:57:00,49.6,44.0,29.87,SSE,158,0.0,0.0,81,0.00,,,0.00,VWS V14.01,2013-02-05 21:57:00,